createdAt,value
2022-08-19T00:01:45.655Z,2.95
2022-08-19T00:06:56.328Z,3.30
2022-08-19T00:12:00.028Z,3.58
2022-08-19T00:17:03.091Z,3.17
2022-08-19T00:22:07.245Z,2.42
2022-08-19T00:32:29.887Z,2.70
2022-08-19T00:37:34.948Z,2.63
2022-08-19T00:42:37.898Z,3.10
2022-08-19T00:47:41.112Z,3.00
2022-08-19T00:52:47.233Z,2.97
2022-08-19T00:57:56.837Z,3.20
2022-08-19T01:03:00.767Z,3.47
2022-08-19T01:08:09.431Z,3.75
2022-08-19T01:13:13.938Z,3.60
2022-08-19T01:18:20.142Z,3.38
2022-08-19T01:23:22.861Z,3.90
2022-08-19T01:28:33.685Z,4.78
2022-08-19T01:33:37.221Z,7.30
2022-08-19T01:38:44.367Z,8.85
2022-08-19T01:44:09.883Z,7.55
2022-08-19T01:49:11.675Z,7.57
2022-08-19T01:54:27.021Z,8.25
2022-08-19T01:59:32.813Z,8.52
2022-08-19T02:04:38.376Z,7.63
2022-08-19T02:09:41.632Z,7.95
2022-08-19T02:14:44.839Z,7.53
2022-08-19T02:19:47.391Z,7.70
2022-08-19T02:24:50.993Z,8.23
2022-08-19T02:29:54.792Z,11.35
2022-08-19T02:34:57.479Z,10.57
2022-08-19T02:40:00.841Z,6.82
2022-08-19T02:45:04.688Z,5.43
2022-08-19T02:50:08.055Z,5.37
2022-08-19T02:55:10.794Z,4.75
2022-08-19T03:00:14.632Z,4.90
2022-08-19T03:05:18.471Z,6.00
2022-08-19T03:10:31.284Z,5.53
2022-08-19T03:15:34.017Z,5.93
2022-08-19T03:20:42.854Z,3.85
2022-08-19T03:25:58.224Z,4.75
2022-08-19T03:31:41.832Z,4.95
2022-08-19T03:36:37.447Z,4.82
2022-08-19T03:41:44.663Z,4.88
2022-08-19T03:46:54.301Z,4.85
2022-08-19T03:51:59.257Z,5.20
2022-08-19T03:57:02.822Z,8.68
2022-08-19T04:02:10.860Z,8.07
2022-08-19T04:07:17.902Z,10.15
2022-08-19T04:12:22.079Z,8.65
2022-08-19T04:17:24.997Z,7.75
2022-08-19T04:22:27.683Z,6.32
2022-08-19T04:27:33.078Z,7.93
2022-08-19T04:32:37.207Z,5.43
2022-08-19T04:37:40.154Z,5.03
2022-08-19T04:42:43.190Z,5.22
2022-08-19T04:47:48.164Z,4.20
2022-08-19T04:53:00.882Z,3.85
2022-08-19T04:58:04.433Z,3.03
2022-08-19T05:03:07.937Z,1.50
2022-08-19T05:08:10.677Z,1.40
2022-08-19T05:13:19.330Z,1.15
2022-08-19T05:18:41.538Z,1.02
2022-08-19T05:23:44.531Z,1.15
2022-08-19T05:28:47.087Z,0.90
2022-08-19T05:33:49.846Z,0.90
2022-08-19T05:38:53.099Z,1.00
2022-08-19T05:43:56.144Z,1.65
2022-08-19T05:48:59.101Z,1.50
2022-08-19T05:54:03.466Z,1.58
2022-08-19T05:59:10.534Z,3.00
2022-08-19T06:04:18.525Z,2.30
2022-08-19T06:09:23.216Z,1.85
2022-08-19T06:19:32.273Z,1.33
2022-08-19T06:24:35.179Z,1.25
2022-08-19T06:29:40.263Z,1.50
2022-08-19T06:34:43.091Z,1.20
2022-08-19T06:39:46.787Z,1.10
2022-08-19T06:44:53.552Z,0.90
2022-08-19T06:50:05.527Z,1.40
2022-08-19T06:55:09.039Z,0.98
2022-08-19T07:00:15.550Z,0.88
2022-08-19T07:05:19.313Z,0.95
2022-08-19T07:10:23.109Z,1.10
2022-08-19T07:15:29.171Z,1.20
2022-08-19T07:20:31.928Z,1.23
2022-08-19T07:25:34.472Z,1.10
2022-08-19T07:30:39.115Z,1.00
2022-08-19T07:35:41.954Z,1.05
2022-08-19T07:40:47.754Z,1.50
2022-08-19T07:45:50.462Z,0.88
2022-08-19T07:50:59.015Z,1.55
2022-08-19T07:56:05.779Z,1.13
2022-08-19T08:01:11.790Z,1.10
2022-08-19T08:06:35.891Z,1.25
2022-08-19T08:11:50.544Z,1.15
2022-08-19T08:16:53.515Z,1.08
2022-08-19T08:22:00.234Z,1.20
2022-08-19T08:27:03.966Z,1.30
2022-08-19T08:32:15.047Z,0.93
2022-08-19T08:37:17.886Z,1.02
2022-08-19T08:42:33.475Z,1.13
2022-08-19T08:47:57.322Z,1.20
2022-08-19T08:53:00.633Z,1.17
2022-08-19T08:58:09.564Z,1.50
2022-08-19T09:03:18.730Z,1.05
2022-08-19T09:08:30.706Z,1.67
2022-08-19T09:13:42.197Z,1.88
2022-08-19T09:18:54.248Z,1.83
2022-08-19T09:23:57.408Z,1.80
2022-08-19T09:29:01.177Z,2.13
2022-08-19T09:39:16.234Z,4.40
2022-08-19T09:44:19.623Z,4.78
2022-08-19T09:49:26.882Z,5.40
2022-08-19T09:54:30.507Z,4.35
2022-08-19T10:09:58.523Z,3.75
2022-08-19T10:15:02.296Z,4.25
2022-08-19T10:24:51.393Z,4.80
2022-08-19T10:29:55.278Z,4.97
2022-08-19T10:34:58.456Z,4.38
2022-08-19T10:40:01.831Z,4.95
2022-08-19T10:45:07.819Z,5.65
2022-08-19T10:50:31.638Z,5.43
2022-08-19T10:55:53.411Z,6.22
2022-08-19T11:00:59.802Z,5.93
2022-08-19T11:06:13.714Z,8.07
2022-08-19T11:11:16.913Z,7.72
2022-08-19T11:52:28.967Z,2.97
2022-08-19T11:57:36.996Z,1.80
2022-08-19T12:02:42.430Z,2.42
2022-08-19T12:07:45.894Z,1.80
2022-08-19T12:12:58.826Z,1.90
2022-08-19T12:18:02.827Z,2.00
2022-08-19T12:23:07.985Z,3.90
2022-08-19T12:28:11.330Z,3.45
2022-08-19T12:39:02.961Z,3.17
2022-08-19T12:48:53.294Z,3.33
2022-08-19T12:53:59.115Z,3.80
2022-08-19T13:06:19.022Z,2.47
2022-08-19T13:11:26.450Z,2.60
2022-08-19T13:16:30.735Z,2.58
2022-08-19T13:21:35.332Z,2.60
2022-08-19T13:26:39.717Z,3.13
2022-08-19T13:32:02.652Z,2.30
2022-08-19T13:42:12.371Z,2.30
2022-08-19T13:47:16.483Z,2.28
2022-08-19T13:52:20.034Z,2.17
2022-08-19T13:57:24.236Z,2.30
2022-08-19T14:02:28.287Z,2.20
2022-08-19T14:07:31.676Z,2.38
2022-08-19T14:12:35.673Z,2.22
2022-08-19T14:17:45.957Z,2.65
2022-08-19T14:22:50.034Z,2.47
2022-08-19T14:27:54.244Z,2.85
2022-08-19T14:33:00.023Z,3.25
2022-08-19T14:38:06.842Z,3.28
2022-08-19T14:43:10.078Z,3.17
2022-08-19T14:48:19.348Z,2.92
2022-08-19T14:53:23.720Z,2.90
2022-08-19T14:58:29.469Z,3.38
2022-08-19T15:03:34.040Z,2.80
2022-08-19T15:08:41.040Z,2.60
2022-08-19T15:13:45.909Z,3.00
2022-08-19T15:18:53.640Z,2.88
2022-08-19T15:24:00.025Z,2.63
2022-08-19T15:29:04.842Z,6.40
2022-08-19T15:34:08.590Z,2.85
2022-08-19T15:39:12.078Z,2.60
2022-08-19T15:44:19.562Z,2.83
2022-08-19T15:49:22.991Z,2.58
2022-08-19T15:54:26.398Z,3.00
2022-08-19T15:59:48.107Z,2.92
2022-08-19T16:05:13.056Z,1.80
2022-08-19T16:10:26.079Z,2.15
2022-08-19T16:15:31.749Z,1.63
2022-08-19T16:20:36.140Z,1.88
2022-08-19T16:25:40.272Z,2.15
2022-08-19T16:30:48.417Z,2.20
2022-08-19T16:36:00.013Z,2.00
2022-08-19T16:41:04.446Z,1.88
2022-08-19T16:46:08.113Z,2.08
2022-08-19T16:51:12.089Z,1.90
2022-08-19T16:56:16.053Z,2.00
2022-08-19T17:01:19.857Z,1.60
2022-08-19T17:06:28.773Z,1.63
2022-08-19T17:11:34.559Z,1.45
2022-08-19T17:16:38.033Z,1.95
2022-08-19T17:26:45.211Z,1.33
2022-08-19T17:31:48.435Z,1.42
2022-08-19T17:41:54.826Z,1.70
2022-08-19T17:46:59.572Z,1.88
2022-08-19T17:52:06.129Z,1.80
2022-08-19T17:57:13.155Z,1.77
2022-08-19T18:02:16.643Z,2.22
2022-08-19T18:07:24.840Z,1.70
2022-08-19T18:12:28.539Z,1.92
2022-08-19T18:17:32.111Z,1.98
2022-08-19T18:22:38.497Z,1.90
2022-08-19T18:27:44.228Z,1.98
2022-08-19T18:32:50.541Z,2.00
2022-08-19T18:37:53.790Z,1.88
2022-08-19T18:43:15.367Z,2.22
2022-08-19T18:48:37.480Z,3.28
2022-08-19T18:53:42.651Z,2.08
2022-08-19T18:58:46.801Z,2.50
2022-08-19T19:03:54.854Z,2.15
2022-08-19T19:08:59.045Z,2.85
2022-08-19T19:19:08.903Z,2.80
2022-08-19T19:24:14.782Z,2.80
2022-08-19T19:29:20.194Z,2.90
2022-08-19T19:34:29.504Z,4.20
2022-08-19T19:39:46.591Z,2.40
2022-08-19T19:44:55.488Z,3.20
2022-08-19T19:50:15.853Z,2.65
2022-08-19T19:55:20.450Z,3.30
2022-08-19T20:00:24.420Z,3.33
2022-08-19T20:05:27.878Z,3.28
2022-08-19T20:10:32.705Z,2.92
2022-08-19T20:15:41.732Z,3.00
2022-08-19T20:20:47.290Z,4.00
2022-08-19T20:25:51.982Z,3.65
2022-08-19T20:30:55.298Z,3.50
2022-08-19T20:35:58.670Z,3.70
2022-08-19T20:41:05.823Z,3.72
2022-08-19T20:46:08.865Z,3.58
2022-08-19T20:51:12.784Z,4.23
2022-08-19T20:56:16.076Z,3.88
2022-08-19T21:01:19.936Z,3.85
2022-08-19T21:06:23.352Z,3.58
2022-08-19T21:11:27.120Z,3.97
2022-08-19T21:16:30.196Z,3.47
2022-08-19T21:21:34.069Z,3.90
2022-08-19T21:26:37.575Z,4.43
2022-08-19T21:31:41.000Z,3.70
2022-08-19T21:36:44.178Z,4.10
2022-08-19T21:41:47.442Z,3.55
2022-08-19T21:46:50.781Z,4.10
2022-08-19T21:51:54.255Z,4.28
2022-08-19T21:56:57.969Z,15.32
2022-08-19T22:02:19.103Z,3.90
2022-08-19T22:07:27.185Z,3.92
2022-08-19T22:12:34.972Z,4.60
2022-08-19T22:17:39.435Z,3.88
2022-08-19T22:22:50.840Z,3.35
2022-08-19T22:27:54.501Z,3.53
2022-08-19T22:33:02.175Z,3.67
2022-08-19T22:38:07.422Z,4.07
2022-08-19T22:43:15.979Z,3.45
2022-08-19T22:48:23.193Z,3.45
2022-08-19T22:53:27.813Z,3.63
2022-08-19T22:58:31.298Z,4.03
2022-08-19T23:03:35.322Z,4.28
2022-08-19T23:08:40.558Z,3.80
2022-08-19T23:13:43.847Z,4.00
2022-08-19T23:18:47.864Z,3.70
2022-08-19T23:23:51.704Z,3.60
2022-08-19T23:29:13.531Z,3.73
2022-08-19T23:34:17.436Z,3.92
2022-08-19T23:39:20.724Z,4.20
2022-08-19T23:44:24.024Z,4.80
2022-08-19T23:49:28.723Z,3.92
2022-08-19T23:54:42.927Z,4.30
2022-08-19T23:59:47.276Z,4.40
